Yuanjiang, China
Current Conditions -  °F | °C
As of 12:00 AM on Friday 30 Jan 2015 (Local Time) from ZPPP Reporting Station
Clear Clear  
Wind Chill: 50°   Ceiling: Unl
Heat Index: 50°   Visibility: 5mi
Dew Point: 36°   Wind: 13mph
Humidity: 58%   Direction: 210°SSW
Pressure: 30.15"   Gusts: NA
Location:  23.6°N, 101.98°E
Report Text: ZPPP 291600Z 21006MPS 8000 NSC 10/02 Q1021 NOSIG
Loading
Personal Weather Stations






























Interactive Weather Map New forecast layout! Learn more

10-Day Weather Forecast

Advertisements
Track Severe Weather on mobile